sensor_id;sensor_type;location;lat;lon;timestamp;pressure;altitude;pressure_sealevel;temperature;humidity
4410;BME280;2218;51.408;7.208;2023-07-30T00:02:06;99180.41;;;21.98;64.00
4410;BME280;2218;51.408;7.208;2023-07-30T00:04:32;99176.81;;;21.99;63.75
4410;BME280;2218;51.408;7.208;2023-07-30T00:06:59;99183.06;;;21.98;64.20
4410;BME280;2218;51.408;7.208;2023-07-30T00:09:26;99175.13;;;21.98;63.95
4410;BME280;2218;51.408;7.208;2023-07-30T00:11:53;99180.41;;;21.98;63.54
4410;BME280;2218;51.408;7.208;2023-07-30T00:14:20;99181.41;;;21.97;64.12
4410;BME280;2218;51.408;7.208;2023-07-30T00:16:47;99179.59;;;21.97;63.63
4410;BME280;2218;51.408;7.208;2023-07-30T00:19:15;99177.78;;;21.98;64.14
4410;BME280;2218;51.408;7.208;2023-07-30T00:21:42;99182.38;;;21.96;64.05
4410;BME280;2218;51.408;7.208;2023-07-30T00:24:12;99185.03;;;21.96;64.12
4410;BME280;2218;51.408;7.208;2023-07-30T00:26:39;99177.91;;;21.96;64.00
4410;BME280;2218;51.408;7.208;2023-07-30T00:29:06;99179.72;;;21.96;63.71
4410;BME280;2218;51.408;7.208;2023-07-30T00:31:32;99175.28;;;21.96;63.79
4410;BME280;2218;51.408;7.208;2023-07-30T00:33:59;99170.13;;;21.94;63.49
4410;BME280;2218;51.408;7.208;2023-07-30T00:36:27;99180.72;;;21.94;63.79
4410;BME280;2218;51.408;7.208;2023-07-30T00:38:54;99175.41;;;21.94;63.65
4410;BME280;2218;51.408;7.208;2023-07-30T00:41:21;99171.13;;;21.93;63.55
4410;BME280;2218;51.408;7.208;2023-07-30T00:43:47;99175.41;;;21.94;63.66
4410;BME280;2218;51.408;7.208;2023-07-30T00:46:15;99173.75;;;21.93;63.67
4410;BME280;2218;51.408;7.208;2023-07-30T00:48:42;99181.69;;;21.93;63.64
4410;BME280;2218;51.408;7.208;2023-07-30T00:51:13;99178.06;;;21.94;64.05
4410;BME280;2218;51.408;7.208;2023-07-30T00:53:43;99185.28;;;21.92;63.99
4410;BME280;2218;51.408;7.208;2023-07-30T00:56:10;99187.94;;;21.92;63.51
4410;BME280;2218;51.408;7.208;2023-07-30T00:58:37;99188.78;;;21.93;63.59
4410;BME280;2218;51.408;7.208;2023-07-30T01:01:05;99182.63;;;21.92;63.48
4410;BME280;2218;51.408;7.208;2023-07-30T01:03:32;99185.28;;;21.92;63.46
4410;BME280;2218;51.408;7.208;2023-07-30T01:05:59;99191.56;;;21.91;63.81
4410;BME280;2218;51.408;7.208;2023-07-30T01:08:26;99188.06;;;21.91;63.53
4410;BME280;2218;51.408;7.208;2023-07-30T01:10:57;99188.91;;;21.91;63.66
4410;BME280;2218;51.408;7.208;2023-07-30T01:13:25;99193.38;;;21.91;63.45
4410;BME280;2218;51.408;7.208;2023-07-30T01:15:53;99195.19;;;21.90;63.44
4410;BME280;2218;51.408;7.208;2023-07-30T01:18:21;99201.31;;;21.91;63.81
4410;BME280;2218;51.408;7.208;2023-07-30T01:20:53;99195.19;;;21.90;63.31
4410;BME280;2218;51.408;7.208;2023-07-30T01:23:20;99199.63;;;21.90;63.44
4410;BME280;2218;51.408;7.208;2023-07-30T01:25:53;99200.47;;;21.90;63.81
4410;BME280;2218;51.408;7.208;2023-07-30T01:28:28;99203.25;;;21.89;63.66
4410;BME280;2218;51.408;7.208;2023-07-30T01:31:02;99197.13;;;21.88;63.36
4410;BME280;2218;51.408;7.208;2023-07-30T01:33:30;99201.44;;;21.89;63.86
4410;BME280;2218;51.408;7.208;2023-07-30T01:35:59;99197.13;;;21.88;63.68
4410;BME280;2218;51.408;7.208;2023-07-30T01:38:29;99208.56;;;21.89;63.56
4410;BME280;2218;51.408;7.208;2023-07-30T01:40:58;99209.50;;;21.88;63.85
4410;BME280;2218;51.408;7.208;2023-07-30T01:43:25;99212.16;;;21.88;63.35
4410;BME280;2218;51.408;7.208;2023-07-30T01:45:52;99218.31;;;21.88;63.33
4410;BME280;2218;51.408;7.208;2023-07-30T01:48:19;99217.44;;;21.88;63.35
4410;BME280;2218;51.408;7.208;2023-07-30T01:50:46;99216.59;;;21.87;63.67
4410;BME280;2218;51.408;7.208;2023-07-30T01:53:15;99221.88;;;21.87;63.15
4410;BME280;2218;51.408;7.208;2023-07-30T01:55:42;99227.19;;;21.87;63.60
4410;BME280;2218;51.408;7.208;2023-07-30T01:58:12;99218.41;;;21.87;63.73
4410;BME280;2218;51.408;7.208;2023-07-30T02:00:39;99218.41;;;21.87;63.32
4410;BME280;2218;51.408;7.208;2023-07-30T02:03:06;99224.69;;;21.86;63.29
4410;BME280;2218;51.408;7.208;2023-07-30T02:05:33;99220.38;;;21.85;63.19
4410;BME280;2218;51.408;7.208;2023-07-30T02:08:00;99214.09;;;21.86;63.64
4410;BME280;2218;51.408;7.208;2023-07-30T02:10:28;99223.84;;;21.85;63.02
4410;BME280;2218;51.408;7.208;2023-07-30T02:12:55;99223.00;;;21.85;63.56
4410;BME280;2218;51.408;7.208;2023-07-30T02:15:23;99213.28;;;21.85;63.73
4410;BME280;2218;51.408;7.208;2023-07-30T02:17:50;99217.72;;;21.85;63.26
4410;BME280;2218;51.408;7.208;2023-07-30T02:20:17;99216.88;;;21.84;63.21
4410;BME280;2218;51.408;7.208;2023-07-30T02:22:43;99210.75;;;21.84;63.45
4410;BME280;2218;51.408;7.208;2023-07-30T02:25:10;99217.72;;;21.85;63.01
4410;BME280;2218;51.408;7.208;2023-07-30T02:27:39;99216.06;;;21.84;63.71
4410;BME280;2218;51.408;7.208;2023-07-30T02:30:07;99217.88;;;21.83;63.52
4410;BME280;2218;51.408;7.208;2023-07-30T02:32:34;99217.88;;;21.83;63.69
4410;BME280;2218;51.408;7.208;2023-07-30T02:35:01;99221.47;;;21.82;62.99
4410;BME280;2218;51.408;7.208;2023-07-30T02:37:27;99220.50;;;21.83;63.36
4410;BME280;2218;51.408;7.208;2023-07-30T02:39:54;99223.28;;;21.82;63.22
4410;BME280;2218;51.408;7.208;2023-07-30T02:42:21;99224.94;;;21.83;63.21
4410;BME280;2218;51.408;7.208;2023-07-30T02:44:49;99221.47;;;21.82;63.55
4410;BME280;2218;51.408;7.208;2023-07-30T02:47:17;99222.44;;;21.81;62.98
4410;BME280;2218;51.408;7.208;2023-07-30T02:49:43;99214.66;;;21.80;63.49
4410;BME280;2218;51.408;7.208;2023-07-30T02:52:10;99224.25;;;21.81;63.28
4410;BME280;2218;51.408;7.208;2023-07-30T02:54:37;99215.47;;;21.80;63.28
4410;BME280;2218;51.408;7.208;2023-07-30T02:57:05;99218.13;;;21.80;63.47
4410;BME280;2218;51.408;7.208;2023-07-30T02:59:32;99227.72;;;21.81;62.99
4410;BME280;2218;51.408;7.208;2023-07-30T03:02:04;99226.06;;;21.80;62.92
4410;BME280;2218;51.408;7.208;2023-07-30T03:04:31;99224.38;;;21.79;63.04
4410;BME280;2218;51.408;7.208;2023-07-30T03:06:59;99229.69;;;21.79;63.07
4410;BME280;2218;51.408;7.208;2023-07-30T03:09:27;99229.69;;;21.79;63.00
4410;BME280;2218;51.408;7.208;2023-07-30T03:11:54;99230.50;;;21.80;62.82
4410;BME280;2218;51.408;7.208;2023-07-30T03:14:21;99228.00;;;21.78;62.93
4410;BME280;2218;51.408;7.208;2023-07-30T03:16:49;99233.31;;;21.78;63.02
4410;BME280;2218;51.408;7.208;2023-07-30T03:19:17;99228.00;;;21.78;63.26
4410;BME280;2218;51.408;7.208;2023-07-30T03:21:44;99228.00;;;21.78;63.30
4410;BME280;2218;51.408;7.208;2023-07-30T03:24:11;99221.03;;;21.77;62.86
4410;BME280;2218;51.408;7.208;2023-07-30T03:26:38;99234.25;;;21.77;63.32
4410;BME280;2218;51.408;7.208;2023-07-30T03:29:05;99231.59;;;21.77;62.75
4410;BME280;2218;51.408;7.208;2023-07-30T03:31:32;99234.25;;;21.77;62.83
4410;BME280;2218;51.408;7.208;2023-07-30T03:33:59;99234.25;;;21.77;63.30
4410;BME280;2218;51.408;7.208;2023-07-30T03:36:28;99230.78;;;21.77;62.79
4410;BME280;2218;51.408;7.208;2023-07-30T03:38:54;99228.97;;;21.77;62.74
4410;BME280;2218;51.408;7.208;2023-07-30T03:41:22;99241.34;;;21.77;63.37
4410;BME280;2218;51.408;7.208;2023-07-30T03:43:49;99239.53;;;21.77;62.96
4410;BME280;2218;51.408;7.208;2023-07-30T03:46:15;99244.84;;;21.77;62.93
4410;BME280;2218;51.408;7.208;2023-07-30T03:48:42;99244.13;;;21.75;63.22
4410;BME280;2218;51.408;7.208;2023-07-30T03:51:09;99239.69;;;21.76;62.68
4410;BME280;2218;51.408;7.208;2023-07-30T03:53:37;99235.38;;;21.75;63.19
4410;BME280;2218;51.408;7.208;2023-07-30T03:56:05;99243.31;;;21.75;62.97
4410;BME280;2218;51.408;7.208;2023-07-30T03:58:32;99243.31;;;21.75;63.03
4410;BME280;2218;51.408;7.208;2023-07-30T04:00:58;99254.72;;;21.75;62.73
4410;BME280;2218;51.408;7.208;2023-07-30T04:03:25;99253.88;;;21.75;63.07
4410;BME280;2218;51.408;7.208;2023-07-30T04:05:53;99255.69;;;21.74;62.59
4410;BME280;2218;51.408;7.208;2023-07-30T04:08:19;99252.06;;;21.75;62.73
4410;BME280;2218;51.408;7.208;2023-07-30T04:10:48;99253.06;;;21.74;62.67
4410;BME280;2218;51.408;7.208;2023-07-30T04:13:16;99253.06;;;21.74;62.59
4410;BME280;2218;51.408;7.208;2023-07-30T04:15:43;99254.72;;;21.75;62.79
4410;BME280;2218;51.408;7.208;2023-07-30T04:18:10;99254.72;;;21.75;63.11
4410;BME280;2218;51.408;7.208;2023-07-30T04:20:37;99260.00;;;21.75;62.75
4410;BME280;2218;51.408;7.208;2023-07-30T04:23:04;99259.19;;;21.75;62.94
4410;BME280;2218;51.408;7.208;2023-07-30T04:25:31;99249.44;;;21.75;62.98
4410;BME280;2218;51.408;7.208;2023-07-30T04:27:59;99260.00;;;21.75;62.71
4410;BME280;2218;51.408;7.208;2023-07-30T04:30:26;99253.88;;;21.75;62.75
4410;BME280;2218;51.408;7.208;2023-07-30T04:32:54;99255.69;;;21.74;62.85
4410;BME280;2218;51.408;7.208;2023-07-30T04:35:20;99253.06;;;21.74;62.24
4410;BME280;2218;51.408;7.208;2023-07-30T04:37:47;99260.00;;;21.75;62.53
4410;BME280;2218;51.408;7.208;2023-07-30T04:40:15;99249.44;;;21.75;62.85
4410;BME280;2218;51.408;7.208;2023-07-30T04:42:42;99255.56;;;21.76;62.19
4410;BME280;2218;51.408;7.208;2023-07-30T04:45:10;99252.06;;;21.75;62.49
4410;BME280;2218;51.408;7.208;2023-07-30T04:47:40;99249.44;;;21.75;62.34
4410;BME280;2218;51.408;7.208;2023-07-30T04:50:08;99267.94;;;21.75;62.22
4410;BME280;2218;51.408;7.208;2023-07-30T04:52:35;99260.84;;;21.76;62.50
4410;BME280;2218;51.408;7.208;2023-07-30T04:55:02;99261.69;;;21.76;62.64
4410;BME280;2218;51.408;7.208;2023-07-30T04:57:29;99264.31;;;21.76;62.35
4410;BME280;2218;51.408;7.208;2023-07-30T04:59:56;99266.97;;;21.76;62.63
4410;BME280;2218;51.408;7.208;2023-07-30T05:02:24;99257.38;;;21.75;62.19
4410;BME280;2218;51.408;7.208;2023-07-30T05:04:52;99259.31;;;21.73;62.55
4410;BME280;2218;51.408;7.208;2023-07-30T05:07:19;99267.25;;;21.73;62.20
4410;BME280;2218;51.408;7.208;2023-07-30T05:09:46;99261.25;;;21.71;62.41
4410;BME280;2218;51.408;7.208;2023-07-30T05:12:13;99268.09;;;21.74;62.35
4410;BME280;2218;51.408;7.208;2023-07-30T05:14:40;99268.09;;;21.74;62.27
4410;BME280;2218;51.408;7.208;2023-07-30T05:17:07;99269.91;;;21.73;62.78
4410;BME280;2218;51.408;7.208;2023-07-30T05:19:35;99264.84;;;21.70;62.70
4410;BME280;2218;51.408;7.208;2023-07-30T05:22:02;99263.06;;;21.71;62.32
4410;BME280;2218;51.408;7.208;2023-07-30T05:24:31;99257.75;;;21.71;62.20
4410;BME280;2218;51.408;7.208;2023-07-30T05:26:58;99263.06;;;21.71;62.41
4410;BME280;2218;51.408;7.208;2023-07-30T05:29:25;99263.88;;;21.71;62.21
4410;BME280;2218;51.408;7.208;2023-07-30T05:31:52;99257.75;;;21.71;62.75
4410;BME280;2218;51.408;7.208;2023-07-30T05:34:19;99263.88;;;21.71;62.47
4410;BME280;2218;51.408;7.208;2023-07-30T05:36:47;99261.38;;;21.70;62.54
4410;BME280;2218;51.408;7.208;2023-07-30T05:39:14;99264.03;;;21.70;62.71
4410;BME280;2218;51.408;7.208;2023-07-30T05:41:40;99265.84;;;21.69;62.19
4410;BME280;2218;51.408;7.208;2023-07-30T05:44:07;99265.84;;;21.69;62.56
4410;BME280;2218;51.408;7.208;2023-07-30T05:46:34;99267.50;;;21.70;62.25
4410;BME280;2218;51.408;7.208;2023-07-30T05:49:01;99262.22;;;21.70;62.33
4410;BME280;2218;51.408;7.208;2023-07-30T05:51:28;99261.38;;;21.70;62.42
4410;BME280;2218;51.408;7.208;2023-07-30T05:53:57;99261.50;;;21.68;62.48
4410;BME280;2218;51.408;7.208;2023-07-30T05:56:24;99255.25;;;21.69;62.40
4410;BME280;2218;51.408;7.208;2023-07-30T05:58:50;99270.28;;;21.68;62.16
4410;BME280;2218;51.408;7.208;2023-07-30T06:01:17;99266.78;;;21.68;62.04
4410;BME280;2218;51.408;7.208;2023-07-30T06:03:45;99264.13;;;21.68;62.02
4410;BME280;2218;51.408;7.208;2023-07-30T06:06:12;99264.13;;;21.68;62.12
4410;BME280;2218;51.408;7.208;2023-07-30T06:08:39;99250.09;;;21.67;62.23
4410;BME280;2218;51.408;7.208;2023-07-30T06:11:07;99268.59;;;21.67;62.37
4410;BME280;2218;51.408;7.208;2023-07-30T06:13:34;99268.59;;;21.67;61.92
4410;BME280;2218;51.408;7.208;2023-07-30T06:16:01;99273.03;;;21.67;62.21
4410;BME280;2218;51.408;7.208;2023-07-30T06:18:28;99272.06;;;21.68;62.03
4410;BME280;2218;51.408;7.208;2023-07-30T06:20:55;99265.13;;;21.67;62.12
4410;BME280;2218;51.408;7.208;2023-07-30T06:23:21;99268.59;;;21.67;62.05
4410;BME280;2218;51.408;7.208;2023-07-30T06:25:48;99268.59;;;21.67;62.51
4410;BME280;2218;51.408;7.208;2023-07-30T06:28:17;99282.66;;;21.68;62.41
4410;BME280;2218;51.408;7.208;2023-07-30T06:30:44;99278.34;;;21.67;61.79
4410;BME280;2218;51.408;7.208;2023-07-30T06:33:11;99275.69;;;21.67;62.42
4410;BME280;2218;51.408;7.208;2023-07-30T06:35:37;99283.63;;;21.67;62.47
4410;BME280;2218;51.408;7.208;2023-07-30T06:38:07;99289.75;;;21.67;62.33
4410;BME280;2218;51.408;7.208;2023-07-30T06:40:35;99299.50;;;21.67;61.89
4410;BME280;2218;51.408;7.208;2023-07-30T06:43:02;99296.84;;;21.67;62.15
4410;BME280;2218;51.408;7.208;2023-07-30T06:45:30;99296.84;;;21.67;62.18
4410;BME280;2218;51.408;7.208;2023-07-30T06:47:57;99301.44;;;21.65;62.47
4410;BME280;2218;51.408;7.208;2023-07-30T06:50:24;99297.00;;;21.65;62.31
4410;BME280;2218;51.408;7.208;2023-07-30T06:52:51;99294.34;;;21.65;61.88
4410;BME280;2218;51.408;7.208;2023-07-30T06:55:18;99301.44;;;21.65;61.79
4410;BME280;2218;51.408;7.208;2023-07-30T06:57:45;99302.28;;;21.65;61.96
4410;BME280;2218;51.408;7.208;2023-07-30T07:00:13;99301.44;;;21.65;62.28
4410;BME280;2218;51.408;7.208;2023-07-30T07:02:46;99301.44;;;21.65;62.43
4410;BME280;2218;51.408;7.208;2023-07-30T07:05:13;99305.06;;;21.64;61.90
4410;BME280;2218;51.408;7.208;2023-07-30T07:07:40;99309.38;;;21.65;62.38
4410;BME280;2218;51.408;7.208;2023-07-30T07:10:08;99310.34;;;21.64;62.24
4410;BME280;2218;51.408;7.208;2023-07-30T07:12:36;99323.56;;;21.64;62.07
4410;BME280;2218;51.408;7.208;2023-07-30T07:15:04;99309.53;;;21.63;61.75
4410;BME280;2218;51.408;7.208;2023-07-30T07:17:32;99316.47;;;21.64;62.14
4410;BME280;2218;51.408;7.208;2023-07-30T07:20:00;99317.31;;;21.65;62.43
4410;BME280;2218;51.408;7.208;2023-07-30T07:22:27;99318.28;;;21.64;62.21
4410;BME280;2218;51.408;7.208;2023-07-30T07:24:53;99324.53;;;21.63;61.96
4410;BME280;2218;51.408;7.208;2023-07-30T07:27:20;99323.56;;;21.64;62.11
4410;BME280;2218;51.408;7.208;2023-07-30T07:29:49;99328.97;;;21.62;61.92
4410;BME280;2218;51.408;7.208;2023-07-30T07:32:15;99330.66;;;21.63;62.08
4410;BME280;2218;51.408;7.208;2023-07-30T07:34:45;99333.31;;;21.63;61.82
4410;BME280;2218;51.408;7.208;2023-07-30T07:37:15;99329.81;;;21.63;61.82
4410;BME280;2218;51.408;7.208;2023-07-30T07:39:44;99332.44;;;21.63;62.22
4410;BME280;2218;51.408;7.208;2023-07-30T07:42:12;99336.91;;;21.62;61.97
4410;BME280;2218;51.408;7.208;2023-07-30T07:44:39;99335.09;;;21.63;61.89
4410;BME280;2218;51.408;7.208;2023-07-30T07:47:06;99338.72;;;21.62;62.07
4410;BME280;2218;51.408;7.208;2023-07-30T07:49:32;99329.81;;;21.63;62.09
4410;BME280;2218;51.408;7.208;2023-07-30T07:51:59;99335.09;;;21.63;61.99
4410;BME280;2218;51.408;7.208;2023-07-30T07:54:27;99341.25;;;21.63;62.11
4410;BME280;2218;51.408;7.208;2023-07-30T07:56:54;99335.09;;;21.63;62.14
4410;BME280;2218;51.408;7.208;2023-07-30T07:59:21;99337.75;;;21.63;62.08
4410;BME280;2218;51.408;7.208;2023-07-30T08:01:48;99339.56;;;21.62;62.05
4410;BME280;2218;51.408;7.208;2023-07-30T08:04:15;99337.75;;;21.63;61.71
4410;BME280;2218;51.408;7.208;2023-07-30T08:06:42;99335.09;;;21.63;62.00
4410;BME280;2218;51.408;7.208;2023-07-30T08:09:09;99339.44;;;21.64;61.77
4410;BME280;2218;51.408;7.208;2023-07-30T08:11:37;99339.44;;;21.64;61.87
4410;BME280;2218;51.408;7.208;2023-07-30T08:14:04;99345.69;;;21.63;61.47
4410;BME280;2218;51.408;7.208;2023-07-30T08:16:31;99342.09;;;21.64;61.69
4410;BME280;2218;51.408;7.208;2023-07-30T08:18:58;99347.38;;;21.64;62.09
4410;BME280;2218;51.408;7.208;2023-07-30T08:21:25;99343.03;;;21.63;61.53
4410;BME280;2218;51.408;7.208;2023-07-30T08:23:52;99337.63;;;21.64;62.14
4410;BME280;2218;51.408;7.208;2023-07-30T08:26:19;99336.78;;;21.64;61.73
4410;BME280;2218;51.408;7.208;2023-07-30T08:28:47;99335.97;;;21.63;61.56
4410;BME280;2218;51.408;7.208;2023-07-30T08:31:14;99335.09;;;21.63;61.53
4410;BME280;2218;51.408;7.208;2023-07-30T08:33:41;99339.44;;;21.64;61.70
4410;BME280;2218;51.408;7.208;2023-07-30T08:36:08;99336.78;;;21.64;61.93
4410;BME280;2218;51.408;7.208;2023-07-30T08:38:35;99340.38;;;21.63;61.82
4410;BME280;2218;51.408;7.208;2023-07-30T08:41:02;99342.09;;;21.64;61.91
4410;BME280;2218;51.408;7.208;2023-07-30T08:43:29;99331.63;;;21.62;61.75
4410;BME280;2218;51.408;7.208;2023-07-30T08:45:59;99331.50;;;21.64;61.49
4410;BME280;2218;51.408;7.208;2023-07-30T08:48:27;99341.25;;;21.63;61.98
4410;BME280;2218;51.408;7.208;2023-07-30T08:50:57;99342.91;;;21.64;61.68
4410;BME280;2218;51.408;7.208;2023-07-30T08:53:25;99340.28;;;21.64;61.51
4410;BME280;2218;51.408;7.208;2023-07-30T08:55:54;99349.03;;;21.65;61.99
4410;BME280;2218;51.408;7.208;2023-07-30T08:58:25;99347.09;;;21.67;61.77
4410;BME280;2218;51.408;7.208;2023-07-30T09:00:55;99354.06;;;21.68;61.80
4410;BME280;2218;51.408;7.208;2023-07-30T09:03:26;99352.28;;;21.68;61.41
4410;BME280;2218;51.408;7.208;2023-07-30T09:05:54;99342.53;;;21.69;61.69
4410;BME280;2218;51.408;7.208;2023-07-30T09:08:21;99346.00;;;21.70;61.64
4410;BME280;2218;51.408;7.208;2023-07-30T09:10:49;99342.41;;;21.71;61.33
4410;BME280;2218;51.408;7.208;2023-07-30T09:13:21;99352.00;;;21.72;61.46
4410;BME280;2218;51.408;7.208;2023-07-30T09:15:49;99351.16;;;21.71;61.68
4410;BME280;2218;51.408;7.208;2023-07-30T09:18:17;99353.56;;;21.74;61.55
4410;BME280;2218;51.408;7.208;2023-07-30T09:20:46;99358.00;;;21.74;61.28
4410;BME280;2218;51.408;7.208;2023-07-30T09:23:14;99364.38;;;21.71;61.81
4410;BME280;2218;51.408;7.208;2023-07-30T09:25:41;99357.28;;;21.72;61.51
4410;BME280;2218;51.408;7.208;2023-07-30T09:28:08;99366.88;;;21.73;61.92
4410;BME280;2218;51.408;7.208;2023-07-30T09:30:34;99360.50;;;21.75;61.31
4410;BME280;2218;51.408;7.208;2023-07-30T09:33:01;99370.25;;;21.75;61.35
4410;BME280;2218;51.408;7.208;2023-07-30T09:35:32;99369.44;;;21.74;61.35
4410;BME280;2218;51.408;7.208;2023-07-30T09:38:03;99374.72;;;21.74;61.43
4410;BME280;2218;51.408;7.208;2023-07-30T09:40:34;99380.84;;;21.75;61.80
4410;BME280;2218;51.408;7.208;2023-07-30T09:43:03;99383.34;;;21.76;61.30
4410;BME280;2218;51.408;7.208;2023-07-30T09:45:34;99377.09;;;21.77;61.25
4410;BME280;2218;51.408;7.208;2023-07-30T09:48:03;99377.81;;;21.79;61.25
4410;BME280;2218;51.408;7.208;2023-07-30T09:50:33;99376.97;;;21.79;61.30
4410;BME280;2218;51.408;7.208;2023-07-30T09:53:03;99382.13;;;21.80;61.51
4410;BME280;2218;51.408;7.208;2023-07-30T09:55:30;99377.81;;;21.79;61.53
4410;BME280;2218;51.408;7.208;2023-07-30T09:57:57;99374.19;;;21.80;61.65
4410;BME280;2218;51.408;7.208;2023-07-30T10:00:26;99375.84;;;21.81;61.61
4410;BME280;2218;51.408;7.208;2023-07-30T10:02:58;99374.88;;;21.82;61.09
4410;BME280;2218;51.408;7.208;2023-07-30T10:05:32;99371.53;;;21.80;61.64
4410;BME280;2218;51.408;7.208;2023-07-30T10:08:05;99371.53;;;21.80;61.67
4410;BME280;2218;51.408;7.208;2023-07-30T10:10:35;99367.22;;;21.79;61.15
4410;BME280;2218;51.408;7.208;2023-07-30T10:13:06;99367.09;;;21.81;61.00
4410;BME280;2218;51.408;7.208;2023-07-30T10:15:35;99378.50;;;21.81;61.59
4410;BME280;2218;51.408;7.208;2023-07-30T10:18:02;99385.34;;;21.84;61.30
4410;BME280;2218;51.408;7.208;2023-07-30T10:20:31;99372.97;;;21.84;61.29
4410;BME280;2218;51.408;7.208;2023-07-30T10:23:00;99366.84;;;21.84;61.29
4410;BME280;2218;51.408;7.208;2023-07-30T10:25:42;99369.47;;;21.84;61.03
4410;BME280;2218;51.408;7.208;2023-07-30T10:28:26;99378.13;;;21.86;61.39
4410;BME280;2218;51.408;7.208;2023-07-30T10:30:56;99373.66;;;21.86;60.80
4410;BME280;2218;51.408;7.208;2023-07-30T10:33:43;99372.81;;;21.86;61.26
4410;BME280;2218;51.408;7.208;2023-07-30T10:36:11;99372.00;;;21.85;60.86
4410;BME280;2218;51.408;7.208;2023-07-30T10:38:39;99373.66;;;21.86;61.37
4410;BME280;2218;51.408;7.208;2023-07-30T10:41:10;99370.19;;;21.86;61.43
4410;BME280;2218;51.408;7.208;2023-07-30T10:43:41;99377.13;;;21.87;61.38
4410;BME280;2218;51.408;7.208;2023-07-30T10:46:12;99375.31;;;21.87;60.75
4410;BME280;2218;51.408;7.208;2023-07-30T10:48:41;99377.13;;;21.87;61.08
4410;BME280;2218;51.408;7.208;2023-07-30T10:51:11;99374.50;;;21.87;60.84
4410;BME280;2218;51.408;7.208;2023-07-30T10:53:38;99375.31;;;21.87;61.00
4410;BME280;2218;51.408;7.208;2023-07-30T10:56:06;99374.63;;;21.85;61.29
4410;BME280;2218;51.408;7.208;2023-07-30T10:58:36;99371.16;;;21.85;60.86
4410;BME280;2218;51.408;7.208;2023-07-30T11:01:04;99377.28;;;21.85;61.36
4410;BME280;2218;51.408;7.208;2023-07-30T11:03:32;99379.09;;;21.85;61.01
4410;BME280;2218;51.408;7.208;2023-07-30T11:06:00;99371.16;;;21.85;61.33
4410;BME280;2218;51.408;7.208;2023-07-30T11:08:36;99368.50;;;21.85;61.23
4410;BME280;2218;51.408;7.208;2023-07-30T11:11:04;99378.94;;;21.86;61.06
4410;BME280;2218;51.408;7.208;2023-07-30T11:13:37;99378.94;;;21.86;61.32
4410;BME280;2218;51.408;7.208;2023-07-30T11:16:05;99381.44;;;21.88;61.13
4410;BME280;2218;51.408;7.208;2023-07-30T11:18:33;99384.97;;;21.88;60.50
4410;BME280;2218;51.408;7.208;2023-07-30T11:21:04;99383.25;;;21.87;60.45
4410;BME280;2218;51.408;7.208;2023-07-30T11:23:33;99380.63;;;21.87;61.26
4410;BME280;2218;51.408;7.208;2023-07-30T11:26:02;99376.16;;;21.88;61.28
4410;BME280;2218;51.408;7.208;2023-07-30T11:28:31;99384.97;;;21.88;61.11
4410;BME280;2218;51.408;7.208;2023-07-30T11:31:02;99384.00;;;21.89;60.55
4410;BME280;2218;51.408;7.208;2023-07-30T11:33:30;99381.34;;;21.89;60.78
4410;BME280;2218;51.408;7.208;2023-07-30T11:36:00;99376.06;;;21.89;61.03
4410;BME280;2218;51.408;7.208;2023-07-30T11:38:29;99376.06;;;21.89;60.58
4410;BME280;2218;51.408;7.208;2023-07-30T11:40:57;99380.38;;;21.90;60.97
4410;BME280;2218;51.408;7.208;2023-07-30T11:43:25;99383.00;;;21.90;60.81
4410;BME280;2218;51.408;7.208;2023-07-30T11:46:08;99388.31;;;21.90;60.57
4410;BME280;2218;51.408;7.208;2023-07-30T11:48:36;99393.75;;;21.89;60.77
4410;BME280;2218;51.408;7.208;2023-07-30T11:51:03;99383.00;;;21.90;60.56
4410;BME280;2218;51.408;7.208;2023-07-30T11:53:48;99382.03;;;21.91;60.46
4410;BME280;2218;51.408;7.208;2023-07-30T11:56:18;99373.13;;;21.92;61.00
4410;BME280;2218;51.408;7.208;2023-07-30T11:58:46;99376.75;;;21.91;60.97
4410;BME280;2218;51.408;7.208;2023-07-30T12:01:15;99374.00;;;21.93;60.48
4410;BME280;2218;51.408;7.208;2023-07-30T12:03:42;99373.84;;;21.94;60.32
4410;BME280;2218;51.408;7.208;2023-07-30T12:06:10;99363.28;;;21.94;60.45
4410;BME280;2218;51.408;7.208;2023-07-30T12:08:38;99364.09;;;21.95;60.81
4410;BME280;2218;51.408;7.208;2023-07-30T12:11:06;99367.59;;;21.96;60.38
4410;BME280;2218;51.408;7.208;2023-07-30T12:13:34;99365.91;;;21.94;60.18
4410;BME280;2218;51.408;7.208;2023-07-30T12:16:08;99366.59;;;21.97;60.34
4410;BME280;2218;51.408;7.208;2023-07-30T12:18:36;99362.16;;;21.97;60.19
4410;BME280;2218;51.408;7.208;2023-07-30T12:21:03;99365.63;;;21.98;60.04
4410;BME280;2218;51.408;7.208;2023-07-30T12:23:33;99366.50;;;21.98;60.10
4410;BME280;2218;51.408;7.208;2023-07-30T12:26:00;99365.63;;;21.98;60.12
4410;BME280;2218;51.408;7.208;2023-07-30T12:28:30;99370.91;;;21.98;60.69
4410;BME280;2218;51.408;7.208;2023-07-30T12:30:57;99383.31;;;21.97;60.13
4410;BME280;2218;51.408;7.208;2023-07-30T12:33:24;99375.28;;;21.99;60.06
4410;BME280;2218;51.408;7.208;2023-07-30T12:35:53;99377.63;;;22.02;60.20
4410;BME280;2218;51.408;7.208;2023-07-30T12:38:20;99377.63;;;22.02;60.32
4410;BME280;2218;51.408;7.208;2023-07-30T12:40:47;99383.91;;;22.01;60.25
4410;BME280;2218;51.408;7.208;2023-07-30T12:43:14;99382.22;;;22.00;60.33
4410;BME280;2218;51.408;7.208;2023-07-30T12:45:40;99380.28;;;22.02;60.19
4410;BME280;2218;51.408;7.208;2023-07-30T12:48:07;99382.91;;;22.02;60.16
4410;BME280;2218;51.408;7.208;2023-07-30T12:50:34;99382.09;;;22.01;59.88
4410;BME280;2218;51.408;7.208;2023-07-30T12:53:03;99377.63;;;22.02;60.25
4410;BME280;2218;51.408;7.208;2023-07-30T12:55:30;99377.63;;;22.02;60.21
4410;BME280;2218;51.408;7.208;2023-07-30T12:57:57;99379.31;;;22.03;59.91
4410;BME280;2218;51.408;7.208;2023-07-30T13:00:24;99380.16;;;22.03;60.10
4410;BME280;2218;51.408;7.208;2023-07-30T13:02:51;99381.94;;;22.03;59.96
4410;BME280;2218;51.408;7.208;2023-07-30T13:05:21;99395.19;;;22.03;60.03
4410;BME280;2218;51.408;7.208;2023-07-30T13:07:48;99400.47;;;22.03;59.65
4410;BME280;2218;51.408;7.208;2023-07-30T13:10:16;99400.47;;;22.03;59.87
4410;BME280;2218;51.408;7.208;2023-07-30T13:12:43;99400.38;;;22.04;60.18
4410;BME280;2218;51.408;7.208;2023-07-30T13:15:10;99411.91;;;22.03;59.38
4410;BME280;2218;51.408;7.208;2023-07-30T13:17:37;99412.75;;;22.04;59.77
4410;BME280;2218;51.408;7.208;2023-07-30T13:20:06;99414.44;;;22.05;59.92
4410;BME280;2218;51.408;7.208;2023-07-30T13:22:33;99412.63;;;22.05;59.24
4410;BME280;2218;51.408;7.208;2023-07-30T13:25:00;99415.25;;;22.05;59.66
4410;BME280;2218;51.408;7.208;2023-07-30T13:27:28;99424.03;;;22.06;59.96